createdAt,value
2022-12-12T00:00:55.217Z,78.96
2022-12-12T00:02:01.318Z,79.03
2022-12-12T00:03:08.306Z,78.98
2022-12-12T00:04:15.944Z,78.79
2022-12-12T00:05:21.294Z,79.04
2022-12-12T00:06:28.730Z,78.79
2022-12-12T00:07:32.038Z,78.91
2022-12-12T00:08:38.128Z,78.70
2022-12-12T00:09:44.895Z,78.82
2022-12-12T00:10:48.366Z,78.87
2022-12-12T00:11:54.323Z,79.07
2022-12-12T00:12:57.703Z,79.01
2022-12-12T00:14:06.938Z,78.70
2022-12-12T00:15:11.961Z,78.86
2022-12-12T00:16:18.822Z,78.85
2022-12-12T00:17:22.225Z,79.33
2022-12-12T00:18:28.337Z,79.07
2022-12-12T00:19:31.844Z,79.16
2022-12-12T00:20:38.553Z,78.96
2022-12-12T00:21:41.974Z,78.97
2022-12-12T00:22:47.892Z,78.81
2022-12-12T00:23:52.723Z,79.09
2022-12-12T00:24:58.704Z,79.25
2022-12-12T00:26:08.828Z,79.00
2022-12-12T00:27:14.772Z,79.01
2022-12-12T00:28:18.277Z,79.55
2022-12-12T00:29:26.783Z,79.03
2022-12-12T00:30:30.104Z,79.30
2022-12-12T00:31:37.170Z,79.39
2022-12-12T00:32:40.622Z,79.21
2022-12-12T00:33:50.359Z,79.35
2022-12-12T00:34:53.870Z,78.98
2022-12-12T00:35:59.801Z,79.32
2022-12-12T00:37:06.637Z,79.01
2022-12-12T00:38:10.250Z,78.98
2022-12-12T00:39:18.450Z,78.48
2022-12-12T00:40:22.680Z,78.84
2022-12-12T00:41:29.705Z,78.95
2022-12-12T00:42:36.613Z,78.79
2022-12-12T00:43:40.005Z,78.89
2022-12-12T00:44:48.572Z,78.76
2022-12-12T00:45:52.531Z,78.76
2022-12-12T00:46:58.479Z,78.83
2022-12-12T00:48:02.659Z,78.63
2022-12-12T00:49:09.430Z,78.87
2022-12-12T00:50:13.950Z,78.84
2022-12-12T00:51:23.373Z,78.87
2022-12-12T00:52:29.309Z,78.96
2022-12-12T00:53:33.417Z,78.79
2022-12-12T00:54:39.317Z,78.85
2022-12-12T00:55:42.955Z,78.88
2022-12-12T00:56:48.923Z,78.86
2022-12-12T00:57:52.743Z,78.81
2022-12-12T00:58:59.518Z,79.50
2022-12-12T01:00:09.271Z,79.38
2022-12-12T01:01:17.220Z,79.40
2022-12-12T01:02:28.144Z,79.39
2022-12-12T01:03:33.970Z,79.31
2022-12-12T01:04:40.756Z,79.45
2022-12-12T01:05:44.265Z,79.40
2022-12-12T01:06:50.371Z,79.46
2022-12-12T01:07:54.410Z,79.46
2022-12-12T01:09:00.626Z,79.04
2022-12-12T01:10:07.434Z,79.16
2022-12-12T01:11:16.944Z,79.17
2022-12-12T01:12:20.250Z,79.28
2022-12-12T01:13:27.220Z,79.26
2022-12-12T01:14:33.303Z,79.44
2022-12-12T01:15:40.058Z,79.58
2022-12-12T01:16:46.015Z,79.39
2022-12-12T01:17:49.440Z,79.39
2022-12-12T01:18:55.966Z,79.68
2022-12-12T01:19:59.260Z,79.27
2022-12-12T01:21:07.175Z,79.54
2022-12-12T01:22:10.659Z,79.42
2022-12-12T01:23:17.858Z,79.38
2022-12-12T01:24:21.302Z,79.66
2022-12-12T01:25:27.568Z,79.28
2022-12-12T01:26:31.747Z,79.35
2022-12-12T01:27:37.672Z,78.96
2022-12-12T01:28:42.809Z,79.01
2022-12-12T01:29:48.592Z,79.41
2022-12-12T01:30:54.607Z,79.47
2022-12-12T01:32:01.343Z,79.39
2022-12-12T01:33:04.851Z,79.38
2022-12-12T01:34:11.309Z,79.57
2022-12-12T01:35:15.262Z,79.81
2022-12-12T01:36:25.434Z,79.67
2022-12-12T01:37:29.611Z,79.58
2022-12-12T01:38:35.701Z,79.56
2022-12-12T01:39:38.948Z,79.73
2022-12-12T01:40:45.256Z,79.48
2022-12-12T01:41:48.615Z,79.34
2022-12-12T01:42:56.700Z,79.11
2022-12-12T01:44:06.828Z,79.18
2022-12-12T01:46:09.235Z,79.44
2022-12-12T01:47:21.862Z,79.51
2022-12-12T01:48:34.513Z,79.41
2022-12-12T01:49:40.720Z,79.24
2022-12-12T01:50:45.974Z,79.13
2022-12-12T01:51:58.708Z,79.15
2022-12-12T01:53:02.154Z,79.27
2022-12-12T01:54:19.003Z,79.54
2022-12-12T01:55:28.619Z,79.41
2022-12-12T01:56:35.066Z,79.46
2022-12-12T01:57:50.102Z,79.50
2022-12-12T01:58:56.894Z,79.70
2022-12-12T02:00:10.397Z,79.70
2022-12-12T02:01:17.008Z,79.67
2022-12-12T02:02:25.602Z,79.58
2022-12-12T02:03:29.448Z,79.80
2022-12-12T02:04:36.062Z,79.69
2022-12-12T02:05:48.381Z,79.38
2022-12-12T02:06:55.991Z,79.40
2022-12-12T02:08:03.868Z,79.60
2022-12-12T02:09:15.492Z,79.75
2022-12-12T02:10:19.022Z,79.72
2022-12-12T02:11:25.931Z,79.79
2022-12-12T02:12:29.372Z,79.87
2022-12-12T02:13:38.797Z,79.78
2022-12-12T02:14:51.331Z,80.06
2022-12-12T02:16:10.377Z,80.10
2022-12-12T02:18:12.397Z,80.02
2022-12-12T02:20:03.515Z,79.87
2022-12-12T02:21:24.552Z,79.71
2022-12-12T02:23:16.946Z,79.77
2022-12-12T02:25:12.630Z,79.38
2022-12-12T02:27:13.019Z,79.75
2022-12-12T02:29:10.943Z,79.73
2022-12-12T02:30:24.673Z,79.91
2022-12-12T02:31:41.078Z,79.88
2022-12-12T02:33:13.593Z,79.99
2022-12-12T02:34:40.116Z,80.11
2022-12-12T02:36:15.968Z,79.78
2022-12-12T02:37:33.326Z,80.02
2022-12-12T02:38:56.164Z,79.81
2022-12-12T02:40:21.242Z,79.82
2022-12-12T02:41:39.490Z,80.20
2022-12-12T02:42:53.299Z,80.19
2022-12-12T02:44:17.618Z,80.53
2022-12-12T02:45:36.579Z,80.32
2022-12-12T02:46:59.376Z,80.04
2022-12-12T02:48:17.259Z,79.89
2022-12-12T02:49:34.541Z,79.81
2022-12-12T02:50:44.007Z,79.87
2022-12-12T02:51:54.642Z,79.70
2022-12-12T02:53:00.529Z,79.75
2022-12-12T02:54:16.182Z,80.06
2022-12-12T02:55:21.568Z,80.10
2022-12-12T02:56:53.271Z,80.14
2022-12-12T02:57:56.865Z,80.27
2022-12-12T02:59:02.823Z,80.16
2022-12-12T03:00:13.755Z,79.91
2022-12-12T03:01:45.017Z,79.96
2022-12-12T03:03:43.859Z,79.98
2022-12-12T03:05:28.878Z,80.18
2022-12-12T03:07:13.383Z,79.99
2022-12-12T03:08:45.088Z,79.95
2022-12-12T03:10:06.060Z,79.99
2022-12-12T03:11:21.744Z,79.96
2022-12-12T03:12:43.207Z,79.73
2022-12-12T03:13:58.080Z,79.96
2022-12-12T03:15:17.152Z,79.92
2022-12-12T03:16:29.837Z,79.91
2022-12-12T03:17:49.269Z,79.89
2022-12-12T03:19:09.279Z,80.04
2022-12-12T03:20:25.606Z,79.95
2022-12-12T03:21:44.555Z,79.83
2022-12-12T03:23:00.201Z,80.17
2022-12-12T03:24:14.216Z,80.44
2022-12-12T03:25:29.908Z,80.21
2022-12-12T03:26:50.490Z,80.22
2022-12-12T03:28:06.636Z,80.31
2022-12-12T03:29:20.861Z,80.16
2022-12-12T03:30:25.142Z,80.08
2022-12-12T03:31:37.913Z,80.19
2022-12-12T03:32:56.095Z,80.06
2022-12-12T03:34:10.228Z,79.92
2022-12-12T03:35:28.579Z,79.48
2022-12-12T03:36:41.134Z,79.74
2022-12-12T03:37:54.788Z,80.08
2022-12-12T03:39:11.925Z,80.16
2022-12-12T03:40:25.533Z,79.88
2022-12-12T03:41:43.263Z,80.27
2022-12-12T03:42:58.012Z,80.09
2022-12-12T03:44:15.153Z,79.95
2022-12-12T03:45:30.749Z,79.86
2022-12-12T03:46:49.449Z,79.61
2022-12-12T03:48:04.585Z,79.84
2022-12-12T03:49:23.300Z,79.92
2022-12-12T03:50:37.261Z,79.75
2022-12-12T03:51:53.160Z,79.94
2022-12-12T03:53:07.442Z,79.71
2022-12-12T03:54:27.004Z,79.78
2022-12-12T03:55:44.276Z,79.75
2022-12-12T03:57:00.332Z,80.22
2022-12-12T03:58:14.164Z,79.94
2022-12-12T03:59:29.391Z,79.90
2022-12-12T04:00:40.189Z,79.92
2022-12-12T04:02:00.829Z,79.73
2022-12-12T04:03:19.020Z,79.71
2022-12-12T04:04:39.800Z,79.92
2022-12-12T04:06:14.138Z,79.80
2022-12-12T04:07:31.047Z,79.60
2022-12-12T04:08:36.057Z,79.53
2022-12-12T04:09:55.613Z,79.61
2022-12-12T04:11:26.344Z,79.69
2022-12-12T04:12:56.773Z,79.81
2022-12-12T04:14:24.256Z,80.03
2022-12-12T04:16:00.418Z,79.94
2022-12-12T04:17:09.287Z,80.19
2022-12-12T04:18:28.062Z,79.92
2022-12-12T04:19:58.061Z,79.92
2022-12-12T04:21:35.460Z,79.89
2022-12-12T04:23:13.273Z,80.06
2022-12-12T04:24:33.526Z,80.18
2022-12-12T04:26:09.807Z,80.13
2022-12-12T04:27:28.711Z,80.26
2022-12-12T04:28:36.919Z,80.09
2022-12-12T04:29:56.724Z,79.99
2022-12-12T04:31:06.859Z,80.38
2022-12-12T04:32:25.675Z,80.25
2022-12-12T04:33:42.375Z,80.34
2022-12-12T04:35:01.765Z,80.10
2022-12-12T04:36:10.561Z,80.44
2022-12-12T04:37:25.801Z,80.42
2022-12-12T04:38:31.142Z,80.39
2022-12-12T04:39:46.402Z,80.34
2022-12-12T04:40:59.459Z,80.42
2022-12-12T04:42:13.612Z,80.29
2022-12-12T04:43:23.016Z,80.19
2022-12-12T04:44:36.284Z,80.20
2022-12-12T04:45:45.518Z,80.19
2022-12-12T04:46:59.617Z,80.34
2022-12-12T04:48:09.225Z,80.15
2022-12-12T04:49:22.571Z,80.13
2022-12-12T04:50:35.112Z,79.95
2022-12-12T04:51:49.001Z,79.81
2022-12-12T04:53:01.226Z,79.74
2022-12-12T04:54:21.607Z,79.65
2022-12-12T04:55:34.468Z,79.72
2022-12-12T04:56:46.891Z,79.99
2022-12-12T04:57:57.747Z,79.75
2022-12-12T04:59:05.958Z,79.87
2022-12-12T05:00:17.443Z,79.65
2022-12-12T05:01:39.653Z,79.80
2022-12-12T05:02:58.921Z,79.65
2022-12-12T05:04:14.126Z,79.78
2022-12-12T05:05:35.211Z,79.90
2022-12-12T05:06:46.662Z,80.16
2022-12-12T05:08:01.046Z,80.03
2022-12-12T05:09:07.040Z,79.69
2022-12-12T05:10:19.967Z,79.63
2022-12-12T05:11:23.853Z,79.83
2022-12-12T05:12:30.254Z,79.95
2022-12-12T05:13:36.997Z,79.91
2022-12-12T05:14:44.000Z,79.80
2022-12-12T05:15:53.497Z,79.92
2022-12-12T05:17:09.722Z,79.73
2022-12-12T05:18:13.639Z,79.63
2022-12-12T05:19:19.516Z,79.67
2022-12-12T05:20:23.647Z,79.67
2022-12-12T05:21:33.069Z,79.64
2022-12-12T05:22:36.332Z,79.73
2022-12-12T05:23:42.336Z,79.66
2022-12-12T05:24:45.659Z,79.70
2022-12-12T05:25:52.532Z,79.84
2022-12-12T05:26:55.966Z,79.86
2022-12-12T05:28:02.273Z,79.91
2022-12-12T05:29:08.626Z,79.96
2022-12-12T05:30:16.173Z,79.85
2022-12-12T05:31:20.654Z,79.67
2022-12-12T05:32:26.527Z,80.10
2022-12-12T05:33:29.764Z,79.79
2022-12-12T05:34:35.795Z,79.99
2022-12-12T05:35:40.577Z,80.11
2022-12-12T05:36:50.050Z,80.22
2022-12-12T05:37:53.563Z,79.83
2022-12-12T05:38:59.540Z,79.86
2022-12-12T05:40:04.895Z,79.81
2022-12-12T05:41:12.355Z,80.13
2022-12-12T05:42:19.146Z,80.20
2022-12-12T05:43:22.386Z,79.98
2022-12-12T05:44:28.413Z,80.08
2022-12-12T05:45:31.733Z,80.38
2022-12-12T05:46:37.664Z,80.33
2022-12-12T05:47:44.567Z,80.59
2022-12-12T05:48:50.810Z,80.61
2022-12-12T05:49:57.864Z,80.70
2022-12-12T05:51:03.017Z,80.34
2022-12-12T05:52:11.597Z,80.28
2022-12-12T05:53:16.158Z,80.27
2022-12-12T05:54:22.553Z,80.48
2022-12-12T05:55:27.472Z,80.45
2022-12-12T05:56:33.361Z,80.40
2022-12-12T05:57:36.861Z,80.32
2022-12-12T05:58:45.214Z,80.42
2022-12-12T05:59:49.233Z,80.54
2022-12-12T06:01:01.638Z,80.19
2022-12-12T06:02:12.076Z,80.36
2022-12-12T06:03:17.162Z,80.35
2022-12-12T06:04:25.342Z,80.35
2022-12-12T06:05:29.423Z,80.37
2022-12-12T06:06:35.347Z,80.22
2022-12-12T06:07:42.276Z,80.38
2022-12-12T06:08:48.217Z,80.35
2022-12-12T06:09:52.557Z,80.33
2022-12-12T06:10:58.633Z,80.68
2022-12-12T06:12:02.024Z,80.42
2022-12-12T06:13:08.375Z,80.30
2022-12-12T06:14:14.344Z,80.35
2022-12-12T06:15:19.157Z,80.45
2022-12-12T06:16:25.181Z,80.49
2022-12-12T06:17:33.154Z,80.36
2022-12-12T06:18:40.664Z,80.16
2022-12-12T06:19:44.932Z,79.71
2022-12-12T06:20:53.434Z,79.81
2022-12-12T06:21:57.134Z,80.11
2022-12-12T06:23:05.905Z,79.91
2022-12-12T06:24:12.677Z,80.06
2022-12-12T06:25:16.211Z,79.82
2022-12-12T06:26:25.226Z,80.04
2022-12-12T06:27:29.126Z,80.17
2022-12-12T06:28:36.332Z,79.91
2022-12-12T06:29:39.898Z,80.00
2022-12-12T06:30:46.074Z,80.07
2022-12-12T06:31:53.561Z,79.76
2022-12-12T06:33:00.529Z,79.73
2022-12-12T06:34:07.147Z,79.93
2022-12-12T06:35:12.834Z,79.92
2022-12-12T06:36:25.749Z,80.13
2022-12-12T06:37:32.782Z,80.04
2022-12-12T06:38:42.943Z,79.90
2022-12-12T06:39:47.285Z,79.79
2022-12-12T06:40:53.238Z,79.90
2022-12-12T06:41:59.740Z,79.75
2022-12-12T06:43:06.573Z,79.81
2022-12-12T06:44:10.135Z,79.31
2022-12-12T06:45:16.335Z,79.42
2022-12-12T06:46:26.982Z,79.48
2022-12-12T06:47:30.424Z,79.61
2022-12-12T06:48:39.178Z,79.50
2022-12-12T06:49:45.265Z,79.67
2022-12-12T06:50:48.720Z,79.42
2022-12-12T06:51:54.759Z,79.85
2022-12-12T06:53:00.639Z,79.57
2022-12-12T06:54:10.779Z,79.42
2022-12-12T06:55:14.563Z,79.53
2022-12-12T06:56:26.103Z,79.29
2022-12-12T06:57:33.033Z,79.32
2022-12-12T06:58:40.084Z,79.60
2022-12-12T06:59:48.307Z,79.64
2022-12-12T07:00:54.255Z,79.70
2022-12-12T07:02:02.647Z,79.65
2022-12-12T07:03:09.188Z,79.74
2022-12-12T07:04:16.828Z,79.48
2022-12-12T07:05:24.807Z,79.63
2022-12-12T07:06:28.291Z,79.56
2022-12-12T07:07:34.553Z,79.58
2022-12-12T07:08:39.252Z,79.45
2022-12-12T07:09:48.301Z,79.27
2022-12-12T07:10:52.697Z,79.74
2022-12-12T07:11:59.072Z,79.43
2022-12-12T07:13:02.368Z,79.26
2022-12-12T07:14:08.957Z,79.66
2022-12-12T07:15:15.583Z,79.39
2022-12-12T07:16:23.752Z,79.14
2022-12-12T07:17:29.854Z,79.52
2022-12-12T07:18:36.223Z,79.34
2022-12-12T07:19:42.277Z,79.80
2022-12-12T07:20:47.245Z,79.39
2022-12-12T07:21:53.910Z,79.45
2022-12-12T07:22:57.592Z,79.60
2022-12-12T07:24:03.590Z,79.27
2022-12-12T07:25:12.801Z,79.44
2022-12-12T07:26:19.817Z,79.40
2022-12-12T07:27:26.680Z,79.55
2022-12-12T07:28:30.134Z,79.15
2022-12-12T07:29:36.341Z,78.92
2022-12-12T07:30:43.967Z,79.00
2022-12-12T07:31:47.677Z,79.02
2022-12-12T07:32:54.884Z,79.02
2022-12-12T07:33:58.880Z,79.14
2022-12-12T07:35:05.016Z,79.25
2022-12-12T07:36:09.090Z,79.02
2022-12-12T07:37:15.172Z,78.98
2022-12-12T07:38:19.406Z,78.84
2022-12-12T07:39:25.352Z,78.82
2022-12-12T07:40:36.002Z,78.92
2022-12-12T07:41:42.036Z,79.25
2022-12-12T07:42:45.455Z,79.04
2022-12-12T07:43:53.438Z,78.84
2022-12-12T07:44:59.544Z,78.52
2022-12-12T07:46:03.015Z,79.05
2022-12-12T07:47:10.707Z,78.82
2022-12-12T07:48:15.404Z,78.50
2022-12-12T07:49:22.108Z,78.37
2022-12-12T07:50:26.177Z,78.41
2022-12-12T07:51:33.304Z,78.28
2022-12-12T07:52:36.784Z,78.27
2022-12-12T07:53:43.221Z,78.08
2022-12-12T07:54:50.121Z,78.04
2022-12-12T07:55:56.891Z,78.36
2022-12-12T07:57:03.205Z,78.14
2022-12-12T07:58:06.805Z,78.21
2022-12-12T07:59:12.847Z,78.22
2022-12-12T08:00:19.907Z,77.89
2022-12-12T08:01:30.470Z,77.78
2022-12-12T08:02:34.066Z,77.89
2022-12-12T08:03:40.170Z,77.94
2022-12-12T08:04:46.297Z,77.71
2022-12-12T08:05:50.613Z,77.48
2022-12-12T08:07:02.720Z,77.73
2022-12-12T08:08:09.540Z,77.65
2022-12-12T08:09:15.473Z,77.54
2022-12-12T08:10:19.050Z,77.42
2022-12-12T08:11:29.622Z,77.92
2022-12-12T08:12:33.723Z,77.66
2022-12-12T08:13:43.119Z,78.13
2022-12-12T08:14:49.281Z,78.11
2022-12-12T08:15:55.239Z,78.13
2022-12-12T08:17:03.211Z,78.23
2022-12-12T08:18:06.607Z,78.00
2022-12-12T08:19:12.554Z,77.98
2022-12-12T08:20:19.916Z,77.85
2022-12-12T08:21:27.387Z,77.40
2022-12-12T08:22:31.557Z,77.51
2022-12-12T08:23:37.550Z,77.30
2022-12-12T08:24:43.950Z,77.17
2022-12-12T08:25:47.380Z,77.23
2022-12-12T08:26:56.109Z,77.28
2022-12-12T08:28:02.923Z,77.19
2022-12-12T08:29:09.224Z,77.53
2022-12-12T08:30:16.591Z,77.35
2022-12-12T08:31:25.150Z,77.72
2022-12-12T08:32:31.287Z,77.57
2022-12-12T08:33:39.245Z,77.93
2022-12-12T08:34:45.148Z,77.96
2022-12-12T08:35:51.102Z,77.72
2022-12-12T08:36:57.177Z,77.28
2022-12-12T08:38:04.063Z,77.14
2022-12-12T08:39:16.185Z,77.09
2022-12-12T08:40:22.223Z,77.26
2022-12-12T08:41:28.554Z,77.27
2022-12-12T08:42:37.059Z,77.30
2022-12-12T08:43:45.759Z,77.08
2022-12-12T08:44:53.300Z,77.17
2022-12-12T08:46:03.939Z,76.56
2022-12-12T08:47:10.898Z,76.75
2022-12-12T08:48:14.335Z,76.99
2022-12-12T08:49:20.297Z,76.94
2022-12-12T08:50:29.848Z,76.46
2022-12-12T08:51:36.159Z,76.46
2022-12-12T08:52:42.397Z,76.20
2022-12-12T08:53:49.378Z,76.42
2022-12-12T08:54:52.822Z,76.39
2022-12-12T08:55:59.719Z,76.49
2022-12-12T08:57:05.814Z,76.85
2022-12-12T08:58:14.294Z,76.27
2022-12-12T08:59:22.137Z,76.39
2022-12-12T09:00:28.092Z,76.38
2022-12-12T09:01:35.322Z,75.98
2022-12-12T09:02:41.614Z,76.45
2022-12-12T09:03:48.333Z,76.33
2022-12-12T09:04:54.210Z,76.15
2022-12-12T09:06:00.624Z,76.03
2022-12-12T09:07:08.934Z,76.14
2022-12-12T09:08:15.854Z,75.98
2022-12-12T09:09:21.966Z,75.39
2022-12-12T09:10:28.549Z,75.45
2022-12-12T09:11:34.457Z,75.85
2022-12-12T09:12:42.042Z,75.54
2022-12-12T09:13:50.992Z,75.45
2022-12-12T09:14:56.896Z,75.40
2022-12-12T09:16:00.373Z,75.87
2022-12-12T09:17:06.876Z,75.40
2022-12-12T09:18:13.654Z,75.31
2022-12-12T09:19:20.327Z,75.37
2022-12-12T09:20:26.310Z,75.34
2022-12-12T09:21:29.837Z,74.86
2022-12-12T09:22:35.799Z,74.98
2022-12-12T09:23:42.782Z,75.17
2022-12-12T09:24:49.410Z,74.83
2022-12-12T09:25:54.260Z,74.90
2022-12-12T09:27:00.297Z,74.93
2022-12-12T09:28:06.408Z,75.15
2022-12-12T09:29:16.696Z,75.47
2022-12-12T09:30:23.068Z,75.05
2022-12-12T09:31:29.606Z,75.35
2022-12-12T09:32:35.580Z,75.08
2022-12-12T09:33:43.488Z,75.11
2022-12-12T09:34:50.360Z,74.85
2022-12-12T09:35:59.995Z,75.00
2022-12-12T09:37:06.143Z,75.09
2022-12-12T09:38:14.968Z,75.25
2022-12-12T09:39:21.947Z,75.81
2022-12-12T09:40:39.249Z,76.08
2022-12-12T09:41:45.249Z,75.57
2022-12-12T09:42:54.924Z,75.49
2022-12-12T09:44:06.780Z,75.46
2022-12-12T09:45:15.991Z,75.65
2022-12-12T09:46:37.817Z,75.37
2022-12-12T09:47:50.697Z,75.13
2022-12-12T09:49:14.195Z,75.34
2022-12-12T09:50:32.628Z,75.35
2022-12-12T09:51:38.067Z,75.60
2022-12-12T09:52:45.552Z,75.32
2022-12-12T09:53:51.809Z,75.63
2022-12-12T09:54:58.203Z,75.20
2022-12-12T09:56:16.882Z,75.31
2022-12-12T09:57:36.512Z,75.55
2022-12-12T09:58:57.223Z,75.62
2022-12-12T10:00:14.174Z,75.86
2022-12-12T10:01:34.664Z,75.81
2022-12-12T10:03:07.046Z,75.84
2022-12-12T10:04:35.161Z,76.13
2022-12-12T10:06:13.516Z,75.48
2022-12-12T10:07:30.448Z,75.26
2022-12-12T10:08:51.045Z,74.98
2022-12-12T10:10:16.090Z,75.75
2022-12-12T10:11:44.091Z,75.91
2022-12-12T10:12:53.188Z,76.03
2022-12-12T10:14:08.110Z,75.86
2022-12-12T10:15:32.834Z,75.06
2022-12-12T10:16:44.599Z,75.50
2022-12-12T10:17:52.668Z,75.01
2022-12-12T10:19:12.200Z,75.59
2022-12-12T10:20:25.112Z,76.01
2022-12-12T10:21:37.655Z,75.07
2022-12-12T10:22:56.688Z,75.82
2022-12-12T10:24:22.327Z,76.03
2022-12-12T10:25:44.192Z,76.53
2022-12-12T10:26:47.672Z,76.83
2022-12-12T10:27:59.251Z,76.46
2022-12-12T10:29:15.594Z,76.96
2022-12-12T10:30:24.296Z,77.05
2022-12-12T10:31:51.376Z,76.55
2022-12-12T10:33:22.063Z,76.66
2022-12-12T10:34:55.273Z,76.92
2022-12-12T10:36:20.759Z,76.56
2022-12-12T10:37:47.325Z,76.80
2022-12-12T10:39:17.326Z,77.04
2022-12-12T10:40:52.167Z,77.08
2022-12-12T10:42:12.643Z,76.93
2022-12-12T10:43:26.762Z,76.57
2022-12-12T10:45:05.610Z,77.20
2022-12-12T10:46:31.354Z,76.76
2022-12-12T10:47:40.320Z,77.39
2022-12-12T10:48:47.633Z,77.05
2022-12-12T10:50:10.051Z,76.75
2022-12-12T10:51:26.046Z,76.76
2022-12-12T10:52:31.919Z,76.75
2022-12-12T10:53:38.928Z,76.83
2022-12-12T10:54:51.335Z,76.83
2022-12-12T10:56:03.793Z,77.17
2022-12-12T10:57:20.054Z,77.30
2022-12-12T10:58:27.916Z,77.56
2022-12-12T10:59:33.867Z,77.02
2022-12-12T11:00:44.243Z,77.09
2022-12-12T11:02:11.117Z,77.23
2022-12-12T11:03:32.063Z,77.01
2022-12-12T11:04:40.249Z,76.95
2022-12-12T11:05:46.273Z,77.49
2022-12-12T11:06:56.529Z,76.79
2022-12-12T11:08:08.374Z,76.94
2022-12-12T11:09:23.529Z,77.13
2022-12-12T11:10:34.750Z,77.48
2022-12-12T11:11:40.876Z,77.67
2022-12-12T11:12:44.143Z,77.87
2022-12-12T11:13:56.851Z,77.80
2022-12-12T11:15:13.897Z,77.69
2022-12-12T11:16:26.211Z,77.62
2022-12-12T11:17:34.270Z,77.03
2022-12-12T11:18:42.919Z,77.92
2022-12-12T11:19:49.644Z,77.52
2022-12-12T11:21:12.572Z,78.09
2022-12-12T11:22:19.517Z,77.83
2022-12-12T11:23:31.935Z,77.67
2022-12-12T11:24:45.534Z,77.67
2022-12-12T11:26:01.051Z,77.74
2022-12-12T11:27:10.840Z,77.80
2022-12-12T11:28:28.720Z,77.61
2022-12-12T11:29:49.373Z,77.50
2022-12-12T11:30:59.672Z,77.50
2022-12-12T11:32:08.322Z,77.61
2022-12-12T11:33:26.301Z,77.22
2022-12-12T11:34:41.998Z,77.63
2022-12-12T11:35:49.570Z,77.02
2022-12-12T11:36:58.432Z,76.87
2022-12-12T11:38:10.728Z,76.98
2022-12-12T11:39:27.372Z,77.02
2022-12-12T11:40:37.781Z,76.94
2022-12-12T11:42:04.660Z,76.70
2022-12-12T11:43:32.422Z,77.15
2022-12-12T11:44:42.001Z,76.94
2022-12-12T11:46:05.657Z,76.97
2022-12-12T11:47:28.651Z,76.69
2022-12-12T11:48:59.865Z,76.73
2022-12-12T11:50:23.661Z,76.89
2022-12-12T11:51:40.409Z,77.00
2022-12-12T11:52:43.991Z,77.12
2022-12-12T11:53:50.044Z,77.36
2022-12-12T11:54:57.725Z,78.07
2022-12-12T11:56:32.624Z,77.82
2022-12-12T11:58:09.375Z,77.57
2022-12-12T12:00:00.369Z,77.63
2022-12-12T12:01:20.477Z,77.67
2022-12-12T12:03:07.470Z,77.71
2022-12-12T12:04:42.241Z,77.63
2022-12-12T12:06:16.490Z,77.74
2022-12-12T12:07:51.470Z,77.45
2022-12-12T12:09:22.045Z,77.19
2022-12-12T12:10:53.899Z,77.47
2022-12-12T12:12:13.265Z,77.68
2022-12-12T12:13:45.103Z,78.21
2022-12-12T12:15:21.894Z,77.65
2022-12-12T12:16:48.788Z,77.48
2022-12-12T12:18:34.613Z,77.35
2022-12-12T12:19:59.383Z,77.48
2022-12-12T12:21:31.709Z,77.86
2022-12-12T12:22:59.308Z,77.41
2022-12-12T12:24:58.079Z,77.60
2022-12-12T12:26:16.335Z,77.71
2022-12-12T12:27:39.753Z,77.51
2022-12-12T12:29:40.031Z,77.52
2022-12-12T12:31:03.441Z,77.78
2022-12-12T12:32:28.956Z,78.00
2022-12-12T12:34:04.833Z,77.96
2022-12-12T12:35:33.011Z,77.52
2022-12-12T12:37:05.034Z,77.64
2022-12-12T12:38:29.548Z,77.37
2022-12-12T12:40:10.620Z,77.33
2022-12-12T12:41:43.027Z,77.51
2022-12-12T12:43:23.747Z,77.71
2022-12-12T12:44:47.281Z,77.75
2022-12-12T12:46:04.114Z,77.69
2022-12-12T12:47:29.679Z,77.18
2022-12-12T12:48:44.094Z,77.67
2022-12-12T12:50:02.188Z,78.11
2022-12-12T12:51:21.809Z,77.54
2022-12-12T12:52:41.902Z,77.88
2022-12-12T12:53:58.078Z,78.06
2022-12-12T12:55:05.908Z,77.89
2022-12-12T12:56:26.878Z,78.00
2022-12-12T12:57:42.136Z,77.87
2022-12-12T12:58:53.089Z,78.20
2022-12-12T13:00:07.023Z,78.05
2022-12-12T13:01:24.205Z,77.93
2022-12-12T13:02:44.195Z,77.78
2022-12-12T13:04:04.353Z,77.85
2022-12-12T13:05:22.364Z,77.98
2022-12-12T13:06:50.681Z,78.17
2022-12-12T13:08:16.628Z,78.18
2022-12-12T13:09:37.205Z,78.07
2022-12-12T13:10:52.558Z,78.81
2022-12-12T13:12:13.444Z,78.66
2022-12-12T13:13:30.801Z,78.82
2022-12-12T13:14:48.565Z,78.74
2022-12-12T13:16:04.846Z,78.98
2022-12-12T13:17:33.961Z,78.94
2022-12-12T13:18:46.109Z,78.93
2022-12-12T13:19:59.003Z,79.08
2022-12-12T13:21:18.667Z,79.18
2022-12-12T13:22:43.807Z,79.25
2022-12-12T13:24:05.050Z,78.86
2022-12-12T13:25:24.843Z,78.60
2022-12-12T13:26:47.227Z,78.56
2022-12-12T13:27:58.874Z,78.78
2022-12-12T13:29:31.035Z,78.82
2022-12-12T13:31:01.768Z,79.08
2022-12-12T13:32:45.846Z,79.03
2022-12-12T13:34:04.524Z,79.14
2022-12-12T13:35:18.294Z,79.93
2022-12-12T13:36:30.421Z,79.53
2022-12-12T13:37:47.899Z,79.70
2022-12-12T13:39:03.585Z,79.24
2022-12-12T13:40:25.869Z,79.27
2022-12-12T13:42:01.487Z,79.41
2022-12-12T13:43:10.548Z,79.12
2022-12-12T13:44:50.821Z,79.51
2022-12-12T13:45:54.742Z,79.48
2022-12-12T13:47:00.927Z,79.74
2022-12-12T13:48:07.386Z,79.74
2022-12-12T13:49:31.575Z,79.71
2022-12-12T13:50:38.532Z,79.89
2022-12-12T13:51:44.507Z,79.88
2022-12-12T13:53:23.197Z,80.03
2022-12-12T13:55:22.175Z,79.80
2022-12-12T13:56:39.389Z,79.83
2022-12-12T13:58:34.988Z,80.07
2022-12-12T14:00:32.234Z,79.99
2022-12-12T14:01:41.020Z,79.96
2022-12-12T14:03:09.238Z,79.54
2022-12-12T14:04:32.119Z,79.63
2022-12-12T14:05:43.623Z,79.72
2022-12-12T14:07:05.277Z,79.72
2022-12-12T14:08:30.760Z,80.09
2022-12-12T14:09:50.092Z,79.77
2022-12-12T14:11:05.296Z,79.82
2022-12-12T14:12:27.506Z,79.54
2022-12-12T14:13:47.586Z,79.51
2022-12-12T14:15:03.808Z,79.53
2022-12-12T14:16:24.937Z,79.93
2022-12-12T14:17:42.094Z,79.59
2022-12-12T14:19:06.781Z,79.89
2022-12-12T14:20:33.647Z,79.58
2022-12-12T14:21:51.025Z,80.03
2022-12-12T14:23:31.249Z,80.31
2022-12-12T14:25:07.663Z,79.97
2022-12-12T14:26:56.202Z,79.78
2022-12-12T14:28:22.286Z,79.81
2022-12-12T14:29:32.326Z,79.37
2022-12-12T14:30:59.965Z,79.67
2022-12-12T14:32:38.640Z,79.88
2022-12-12T14:34:23.061Z,79.96
2022-12-12T14:35:44.870Z,79.98
2022-12-12T14:37:38.187Z,79.56
2022-12-12T14:39:07.509Z,79.80
2022-12-12T14:40:24.973Z,79.78
2022-12-12T14:41:41.571Z,80.18
2022-12-12T14:43:19.938Z,80.48
2022-12-12T14:44:36.394Z,80.23
2022-12-12T14:45:59.155Z,80.37
2022-12-12T14:47:11.365Z,80.12
2022-12-12T14:48:26.044Z,80.09
2022-12-12T14:49:29.391Z,80.13
2022-12-12T14:50:35.476Z,80.65
2022-12-12T14:51:43.261Z,80.40
2022-12-12T14:52:49.298Z,80.88
2022-12-12T14:53:59.072Z,80.80
2022-12-12T14:55:05.681Z,80.96
2022-12-12T14:56:16.421Z,80.95
2022-12-12T14:57:27.604Z,80.79
2022-12-12T14:58:41.977Z,80.73
2022-12-12T14:59:48.569Z,80.61
2022-12-12T15:00:57.241Z,80.91
2022-12-12T15:02:16.926Z,80.43
2022-12-12T15:03:41.736Z,80.58
2022-12-12T15:04:54.508Z,80.76
2022-12-12T15:06:31.865Z,80.72
2022-12-12T15:07:41.360Z,80.29
2022-12-12T15:08:45.741Z,80.46
2022-12-12T15:09:52.698Z,81.06
2022-12-12T15:10:59.336Z,81.02
2022-12-12T15:12:22.907Z,80.81
2022-12-12T15:13:28.950Z,80.87
2022-12-12T15:14:39.157Z,80.73
2022-12-12T15:15:46.609Z,80.73
2022-12-12T15:17:02.027Z,80.70
2022-12-12T15:18:08.303Z,80.74
2022-12-12T15:19:21.496Z,80.90
2022-12-12T15:20:33.035Z,81.08
2022-12-12T15:21:36.690Z,80.24
2022-12-12T15:22:58.076Z,80.45
2022-12-12T15:24:04.142Z,80.40
2022-12-12T15:25:22.733Z,80.44
2022-12-12T15:26:30.256Z,81.04
2022-12-12T15:27:49.374Z,80.62
2022-12-12T15:29:00.792Z,80.74
2022-12-12T15:30:23.977Z,80.83
2022-12-12T15:31:30.997Z,80.35
2022-12-12T15:32:37.278Z,80.43
2022-12-12T15:33:40.795Z,80.71
2022-12-12T15:34:51.463Z,80.65
2022-12-12T15:36:02.263Z,80.71
2022-12-12T15:37:27.885Z,80.96
2022-12-12T15:38:36.653Z,80.98
2022-12-12T15:39:42.873Z,80.88
2022-12-12T15:40:55.061Z,81.13
2022-12-12T15:41:58.666Z,81.03
2022-12-12T15:43:09.438Z,81.24
2022-12-12T15:44:23.897Z,81.30
2022-12-12T15:45:38.919Z,80.87